createdAt,value
2023-05-05T06:21:22.974Z,100.00
2023-05-05T06:31:22.956Z,100.00
2023-05-05T06:41:22.960Z,98.43
2023-05-05T06:51:22.960Z,95.06
2023-05-05T07:01:22.978Z,94.34
2023-05-05T07:11:23.065Z,95.31
2023-05-05T07:21:22.848Z,94.98
2023-05-05T07:31:22.921Z,91.77
2023-05-05T07:41:23.103Z,90.89
2023-05-05T07:51:23.111Z,88.37
2023-05-05T08:01:23.067Z,86.82
2023-05-05T08:11:22.971Z,85.31
2023-05-05T08:21:23.041Z,84.02
2023-05-05T08:31:23.168Z,81.40
2023-05-05T08:41:23.286Z,78.50
2023-05-05T08:51:23.358Z,76.21
2023-05-05T09:01:23.567Z,73.48
2023-05-05T09:11:23.371Z,71.44
2023-05-05T09:21:23.559Z,71.64
2023-05-05T09:31:23.566Z,70.71
2023-05-05T09:41:23.633Z,70.44
2023-05-05T09:51:23.629Z,68.55
2023-05-05T10:01:23.541Z,66.24
2023-05-05T10:11:23.465Z,66.36
2023-05-05T10:21:23.364Z,65.73
2023-05-05T10:31:26.554Z,65.33
2023-05-05T10:41:23.569Z,64.63
2023-05-05T10:51:35.325Z,63.40
2023-05-05T11:01:23.430Z,61.95
2023-05-05T11:11:23.515Z,60.47
2023-05-05T11:21:23.320Z,61.10
2023-05-05T11:31:23.638Z,60.17
2023-05-05T11:41:23.421Z,57.94
2023-05-05T11:51:23.342Z,60.10
2023-05-05T12:01:23.379Z,59.38
2023-05-05T12:11:23.430Z,61.72
2023-05-05T12:21:23.602Z,64.15
2023-05-05T12:31:23.592Z,65.90
2023-05-05T12:41:23.521Z,64.44
2023-05-05T12:51:23.550Z,64.25
2023-05-05T13:01:23.636Z,61.26
2023-05-05T13:11:23.673Z,61.05
2023-05-05T13:21:23.494Z,61.63
2023-05-05T13:31:23.523Z,60.41
2023-05-05T13:41:23.540Z,62.30
2023-05-05T13:51:23.798Z,64.04
2023-05-05T14:01:23.810Z,61.67
2023-05-05T14:11:23.599Z,61.39
2023-05-05T14:21:23.697Z,61.58
2023-05-05T14:31:23.582Z,61.78
2023-05-05T14:41:23.824Z,61.57
2023-05-05T14:51:23.690Z,63.01
2023-05-05T15:01:23.592Z,62.37
2023-05-05T15:11:23.623Z,63.52
2023-05-05T15:21:23.745Z,63.07
2023-05-05T15:31:23.688Z,62.70
2023-05-05T15:41:23.816Z,64.40
2023-05-05T15:51:23.677Z,66.02
2023-05-05T16:01:23.808Z,68.49
2023-05-05T16:11:23.811Z,68.88
2023-05-05T16:21:23.877Z,71.17
2023-05-05T16:31:23.852Z,76.75
2023-05-05T16:41:23.876Z,85.92
2023-05-05T16:51:23.879Z,100.00
2023-05-05T17:01:23.948Z,100.00
2023-05-05T17:11:23.793Z,100.00
2023-05-05T17:21:23.810Z,100.00
2023-05-05T17:31:24.004Z,100.00
2023-05-05T17:41:23.893Z,100.00
2023-05-05T17:51:23.967Z,100.00
2023-05-05T18:01:24.046Z,100.00
2023-05-05T18:11:23.885Z,100.00
2023-05-05T18:21:23.871Z,100.00
2023-05-05T18:31:23.933Z,100.00
2023-05-05T18:41:24.193Z,100.00
2023-05-05T18:51:24.568Z,100.00
2023-05-05T19:01:24.446Z,100.00
2023-05-05T19:11:24.589Z,100.00
2023-05-05T19:21:24.884Z,100.00
